sensor_id;sensor_type;location;lat;lon;timestamp;P1;durP1;ratioP1;P2;durP2;ratioP2
9489;SDS011;4783;42.734;23.288;2023-05-07T08:53:40;10.85;;;7.80;;
9489;SDS011;4783;42.734;23.288;2023-05-07T08:56:05;7.85;;;6.85;;
9489;SDS011;4783;42.734;23.288;2023-05-07T08:58:31;8.60;;;6.68;;
9489;SDS011;4783;42.734;23.288;2023-05-07T09:00:57;8.55;;;6.60;;
9489;SDS011;4783;42.734;23.288;2023-05-07T09:03:22;7.55;;;6.50;;
9489;SDS011;4783;42.734;23.288;2023-05-07T09:05:48;8.60;;;4.93;;
9489;SDS011;4783;42.734;23.288;2023-05-07T09:08:14;6.78;;;4.93;;
9489;SDS011;4783;42.734;23.288;2023-05-07T09:10:39;8.20;;;5.45;;
9489;SDS011;4783;42.734;23.288;2023-05-07T09:13:05;9.57;;;5.68;;
9489;SDS011;4783;42.734;23.288;2023-05-07T09:15:30;8.57;;;6.30;;
9489;SDS011;4783;42.734;23.288;2023-05-07T09:17:59;8.73;;;5.70;;
9489;SDS011;4783;42.734;23.288;2023-05-07T09:20:25;11.27;;;6.43;;
9489;SDS011;4783;42.734;23.288;2023-05-07T09:22:51;6.80;;;5.35;;
9489;SDS011;4783;42.734;23.288;2023-05-07T09:25:17;10.77;;;6.05;;
9489;SDS011;4783;42.734;23.288;2023-05-07T09:27:52;7.10;;;4.80;;
9489;SDS011;4783;42.734;23.288;2023-05-07T09:30:17;7.90;;;5.80;;
9489;SDS011;4783;42.734;23.288;2023-05-07T09:32:43;12.02;;;5.97;;
9489;SDS011;4783;42.734;23.288;2023-05-07T09:35:14;12.95;;;10.18;;
9489;SDS011;4783;42.734;23.288;2023-05-07T09:37:40;10.13;;;5.50;;
9489;SDS011;4783;42.734;23.288;2023-05-07T09:40:06;37.30;;;11.77;;
9489;SDS011;4783;42.734;23.288;2023-05-07T09:42:32;10.43;;;5.10;;
9489;SDS011;4783;42.734;23.288;2023-05-07T09:44:58;10.85;;;4.82;;
9489;SDS011;4783;42.734;23.288;2023-05-07T09:47:24;5.03;;;4.53;;
9489;SDS011;4783;42.734;23.288;2023-05-07T09:49:50;5.30;;;3.80;;
9489;SDS011;4783;42.734;23.288;2023-05-07T09:52:19;6.72;;;4.00;;
9489;SDS011;4783;42.734;23.288;2023-05-07T09:54:45;9.63;;;4.15;;
9489;SDS011;4783;42.734;23.288;2023-05-07T09:57:12;6.57;;;3.60;;
9489;SDS011;4783;42.734;23.288;2023-05-07T09:59:38;5.75;;;4.47;;
9489;SDS011;4783;42.734;23.288;2023-05-07T10:02:05;4.13;;;3.47;;
9489;SDS011;4783;42.734;23.288;2023-05-07T10:04:31;3.67;;;3.38;;
9489;SDS011;4783;42.734;23.288;2023-05-07T10:06:57;11.07;;;4.10;;
9489;SDS011;4783;42.734;23.288;2023-05-07T10:09:23;4.15;;;3.60;;
9489;SDS011;4783;42.734;23.288;2023-05-07T10:11:48;3.95;;;3.60;;
9489;SDS011;4783;42.734;23.288;2023-05-07T10:14:13;4.50;;;4.10;;
9489;SDS011;4783;42.734;23.288;2023-05-07T10:16:39;6.32;;;3.88;;
9489;SDS011;4783;42.734;23.288;2023-05-07T10:19:05;6.97;;;3.10;;
9489;SDS011;4783;42.734;23.288;2023-05-07T10:21:30;7.15;;;3.50;;
9489;SDS011;4783;42.734;23.288;2023-05-07T10:23:59;6.80;;;3.53;;
9489;SDS011;4783;42.734;23.288;2023-05-07T10:26:28;4.05;;;3.33;;
9489;SDS011;4783;42.734;23.288;2023-05-07T10:28:57;5.47;;;3.03;;
9489;SDS011;4783;42.734;23.288;2023-05-07T10:34:09;5.28;;;4.00;;
9489;SDS011;4783;42.734;23.288;2023-05-07T10:36:35;4.32;;;3.33;;
9489;SDS011;4783;42.734;23.288;2023-05-07T10:39:00;4.05;;;3.60;;
9489;SDS011;4783;42.734;23.288;2023-05-07T10:41:26;5.45;;;4.00;;
9489;SDS011;4783;42.734;23.288;2023-05-07T10:43:51;3.72;;;3.30;;
9489;SDS011;4783;42.734;23.288;2023-05-07T10:46:17;4.57;;;3.95;;
9489;SDS011;4783;42.734;23.288;2023-05-07T10:51:31;3.55;;;3.25;;
9489;SDS011;4783;42.734;23.288;2023-05-07T10:56:35;3.30;;;3.00;;
9489;SDS011;4783;42.734;23.288;2023-05-07T11:01:54;5.53;;;3.40;;
9489;SDS011;4783;42.734;23.288;2023-05-07T11:04:20;4.15;;;3.33;;
9489;SDS011;4783;42.734;23.288;2023-05-07T11:09:53;4.10;;;3.70;;
9489;SDS011;4783;42.734;23.288;2023-05-07T11:12:13;4.05;;;3.30;;
9489;SDS011;4783;42.734;23.288;2023-05-07T11:17:10;3.80;;;3.45;;
9489;SDS011;4783;42.734;23.288;2023-05-07T11:19:51;4.05;;;3.38;;
9489;SDS011;4783;42.734;23.288;2023-05-07T11:25:06;6.05;;;3.75;;
9489;SDS011;4783;42.734;23.288;2023-05-07T11:27:32;4.25;;;3.45;;
9489;SDS011;4783;42.734;23.288;2023-05-07T11:29:57;4.05;;;3.17;;
9489;SDS011;4783;42.734;23.288;2023-05-07T11:32:23;5.05;;;3.25;;
9489;SDS011;4783;42.734;23.288;2023-05-07T11:34:52;4.70;;;2.80;;
9489;SDS011;4783;42.734;23.288;2023-05-07T11:37:18;3.20;;;2.90;;
9489;SDS011;4783;42.734;23.288;2023-05-07T11:39:43;4.07;;;2.58;;
9489;SDS011;4783;42.734;23.288;2023-05-07T11:44:52;3.97;;;2.67;;
9489;SDS011;4783;42.734;23.288;2023-05-07T11:47:18;2.70;;;2.50;;
9489;SDS011;4783;42.734;23.288;2023-05-07T11:49:45;4.35;;;2.92;;
9489;SDS011;4783;42.734;23.288;2023-05-07T11:52:12;7.63;;;6.57;;
9489;SDS011;4783;42.734;23.288;2023-05-07T11:54:37;8.38;;;3.45;;
9489;SDS011;4783;42.734;23.288;2023-05-07T11:57:03;6.00;;;2.80;;
9489;SDS011;4783;42.734;23.288;2023-05-07T11:59:28;3.47;;;3.17;;
9489;SDS011;4783;42.734;23.288;2023-05-07T12:01:56;3.47;;;3.10;;
9489;SDS011;4783;42.734;23.288;2023-05-07T12:04:22;3.67;;;2.90;;
9489;SDS011;4783;42.734;23.288;2023-05-07T12:06:47;4.05;;;3.65;;
9489;SDS011;4783;42.734;23.288;2023-05-07T12:09:12;2.70;;;2.50;;
9489;SDS011;4783;42.734;23.288;2023-05-07T12:11:38;3.15;;;2.80;;
9489;SDS011;4783;42.734;23.288;2023-05-07T12:14:04;3.67;;;2.70;;
9489;SDS011;4783;42.734;23.288;2023-05-07T12:16:30;2.78;;;2.47;;
9489;SDS011;4783;42.734;23.288;2023-05-07T12:18:55;3.25;;;2.28;;
9489;SDS011;4783;42.734;23.288;2023-05-07T12:21:23;2.55;;;2.35;;
9489;SDS011;4783;42.734;23.288;2023-05-07T12:23:50;3.00;;;2.35;;
9489;SDS011;4783;42.734;23.288;2023-05-07T12:26:15;2.75;;;2.45;;
9489;SDS011;4783;42.734;23.288;2023-05-07T12:28:40;3.35;;;2.53;;
9489;SDS011;4783;42.734;23.288;2023-05-07T12:31:06;4.40;;;2.45;;
9489;SDS011;4783;42.734;23.288;2023-05-07T12:33:31;2.95;;;2.40;;
9489;SDS011;4783;42.734;23.288;2023-05-07T12:35:58;7.32;;;2.47;;
9489;SDS011;4783;42.734;23.288;2023-05-07T12:38:23;3.72;;;2.45;;
9489;SDS011;4783;42.734;23.288;2023-05-07T12:40:49;4.43;;;2.50;;
9489;SDS011;4783;42.734;23.288;2023-05-07T12:45:42;5.63;;;3.30;;
9489;SDS011;4783;42.734;23.288;2023-05-07T12:48:09;4.13;;;2.45;;
9489;SDS011;4783;42.734;23.288;2023-05-07T12:50:34;2.83;;;2.63;;
9489;SDS011;4783;42.734;23.288;2023-05-07T12:53:00;4.47;;;2.60;;
9489;SDS011;4783;42.734;23.288;2023-05-07T12:55:25;4.75;;;2.80;;
9489;SDS011;4783;42.734;23.288;2023-05-07T12:57:51;7.22;;;5.80;;
9489;SDS011;4783;42.734;23.288;2023-05-07T13:00:16;5.50;;;3.35;;
9489;SDS011;4783;42.734;23.288;2023-05-07T13:02:42;4.18;;;2.65;;
9489;SDS011;4783;42.734;23.288;2023-05-07T13:05:11;6.43;;;2.65;;
9489;SDS011;4783;42.734;23.288;2023-05-07T13:07:36;5.50;;;2.50;;
9489;SDS011;4783;42.734;23.288;2023-05-07T13:10:02;4.60;;;2.50;;
9489;SDS011;4783;42.734;23.288;2023-05-07T13:12:27;3.70;;;2.50;;
9489;SDS011;4783;42.734;23.288;2023-05-07T13:14:53;3.22;;;2.45;;
9489;SDS011;4783;42.734;23.288;2023-05-07T13:17:18;4.75;;;2.28;;
9489;SDS011;4783;42.734;23.288;2023-05-07T13:19:43;3.00;;;2.70;;
9489;SDS011;4783;42.734;23.288;2023-05-07T13:22:09;4.47;;;2.83;;
9489;SDS011;4783;42.734;23.288;2023-05-07T13:24:34;4.55;;;2.72;;
9489;SDS011;4783;42.734;23.288;2023-05-07T13:26:59;7.38;;;2.80;;
9489;SDS011;4783;42.734;23.288;2023-05-07T13:29:24;3.20;;;2.60;;
9489;SDS011;4783;42.734;23.288;2023-05-07T13:31:54;3.97;;;2.47;;
9489;SDS011;4783;42.734;23.288;2023-05-07T13:34:20;3.03;;;2.15;;
9489;SDS011;4783;42.734;23.288;2023-05-07T13:36:45;3.38;;;2.38;;
9489;SDS011;4783;42.734;23.288;2023-05-07T13:39:11;2.92;;;2.55;;
9489;SDS011;4783;42.734;23.288;2023-05-07T13:41:36;3.88;;;2.53;;
9489;SDS011;4783;42.734;23.288;2023-05-07T13:44:01;4.07;;;2.20;;
9489;SDS011;4783;42.734;23.288;2023-05-07T13:46:27;4.68;;;2.50;;
9489;SDS011;4783;42.734;23.288;2023-05-07T13:48:52;3.78;;;3.33;;
9489;SDS011;4783;42.734;23.288;2023-05-07T13:51:17;3.70;;;2.47;;
9489;SDS011;4783;42.734;23.288;2023-05-07T13:53:43;3.22;;;2.28;;
9489;SDS011;4783;42.734;23.288;2023-05-07T13:56:08;4.22;;;2.38;;
9489;SDS011;4783;42.734;23.288;2023-05-07T13:58:33;9.73;;;2.30;;
9489;SDS011;4783;42.734;23.288;2023-05-07T14:00:58;6.15;;;2.22;;
9489;SDS011;4783;42.734;23.288;2023-05-07T14:03:24;7.23;;;2.73;;
9489;SDS011;4783;42.734;23.288;2023-05-07T14:05:49;3.40;;;3.10;;
9489;SDS011;4783;42.734;23.288;2023-05-07T14:08:14;3.23;;;2.07;;
9489;SDS011;4783;42.734;23.288;2023-05-07T14:10:40;4.95;;;2.45;;
9489;SDS011;4783;42.734;23.288;2023-05-07T14:13:05;3.92;;;2.47;;
9489;SDS011;4783;42.734;23.288;2023-05-07T14:15:30;2.60;;;2.40;;
9489;SDS011;4783;42.734;23.288;2023-05-07T14:17:57;3.50;;;2.70;;
9489;SDS011;4783;42.734;23.288;2023-05-07T14:20:23;4.38;;;3.95;;
9489;SDS011;4783;42.734;23.288;2023-05-07T14:22:49;3.53;;;2.60;;
9489;SDS011;4783;42.734;23.288;2023-05-07T14:25:15;4.20;;;2.28;;
9489;SDS011;4783;42.734;23.288;2023-05-07T14:27:40;3.73;;;2.63;;
9489;SDS011;4783;42.734;23.288;2023-05-07T14:30:05;4.88;;;2.60;;
9489;SDS011;4783;42.734;23.288;2023-05-07T14:32:31;2.85;;;2.10;;
9489;SDS011;4783;42.734;23.288;2023-05-07T14:34:57;6.72;;;4.20;;
9489;SDS011;4783;42.734;23.288;2023-05-07T14:37:22;4.63;;;2.47;;
9489;SDS011;4783;42.734;23.288;2023-05-07T14:39:48;6.13;;;2.50;;
9489;SDS011;4783;42.734;23.288;2023-05-07T14:42:13;4.37;;;3.60;;
9489;SDS011;4783;42.734;23.288;2023-05-07T14:44:38;4.60;;;2.28;;
9489;SDS011;4783;42.734;23.288;2023-05-07T14:47:06;5.35;;;2.40;;
9489;SDS011;4783;42.734;23.288;2023-05-07T14:49:31;5.38;;;2.90;;
9489;SDS011;4783;42.734;23.288;2023-05-07T14:51:57;2.80;;;2.30;;
9489;SDS011;4783;42.734;23.288;2023-05-07T14:54:24;3.42;;;2.10;;
9489;SDS011;4783;42.734;23.288;2023-05-07T14:56:50;5.55;;;2.30;;
9489;SDS011;4783;42.734;23.288;2023-05-07T14:59:15;4.57;;;2.00;;
9489;SDS011;4783;42.734;23.288;2023-05-07T15:01:43;3.60;;;2.00;;
9489;SDS011;4783;42.734;23.288;2023-05-07T15:04:10;3.92;;;2.03;;
9489;SDS011;4783;42.734;23.288;2023-05-07T15:06:35;5.25;;;2.10;;
9489;SDS011;4783;42.734;23.288;2023-05-07T15:09:00;4.60;;;2.13;;
9489;SDS011;4783;42.734;23.288;2023-05-07T15:11:26;2.80;;;1.93;;
9489;SDS011;4783;42.734;23.288;2023-05-07T15:13:51;2.90;;;2.17;;
9489;SDS011;4783;42.734;23.288;2023-05-07T15:16:16;3.90;;;2.10;;
9489;SDS011;4783;42.734;23.288;2023-05-07T15:18:42;2.67;;;1.80;;
9489;SDS011;4783;42.734;23.288;2023-05-07T15:21:07;3.50;;;2.00;;
9489;SDS011;4783;42.734;23.288;2023-05-07T15:23:32;4.30;;;2.07;;
9489;SDS011;4783;42.734;23.288;2023-05-07T15:25:58;5.73;;;1.90;;
9489;SDS011;4783;42.734;23.288;2023-05-07T15:28:23;2.10;;;1.77;;
9489;SDS011;4783;42.734;23.288;2023-05-07T15:30:50;2.25;;;2.05;;
9489;SDS011;4783;42.734;23.288;2023-05-07T15:33:15;2.47;;;1.85;;
9489;SDS011;4783;42.734;23.288;2023-05-07T15:35:40;2.87;;;2.00;;
9489;SDS011;4783;42.734;23.288;2023-05-07T15:38:05;4.35;;;2.00;;
